Time;durP1;ratioP1;P1;durP2;ratioP2;P2;SDS_P1;SDS_P2;PMS_P1;PMS_P2;Temp;Humidity;BMP_temperature;BMP_pressure;BME280_temperature;BME280_humidity;BME280_pressure;Samples;Min_cycle;Max_cycle;Signal;HPM_P1;HPM_P2
2022/10/14 00:01:31;;;;;;;62.33;31.10;;;;;;;8.40;100.00;100594.16;4943823;28;20110;-77
2022/10/14 00:04:00;;;;;;;62.42;30.85;;;;;;;8.43;100.00;100595.25;4960856;28;20034;-78
2022/10/14 00:06:30;;;;;;;58.40;29.67;;;;;;;8.42;100.00;100596.50;4977525;28;20023;-76
2022/10/14 00:09:03;;;;;;;54.53;31.10;;;;;;;8.38;100.00;100597.47;4977305;28;20026;-76
2022/10/14 00:11:30;;;;;;;65.32;33.55;;;;;;;8.37;100.00;100589.38;4959756;28;20019;-78
2022/10/14 00:14:01;;;;;;;55.60;29.33;;;;;;;8.26;100.00;100572.75;4959627;28;20114;-76
2022/10/14 00:16:32;;;;;;;64.63;31.90;;;;;;;8.31;100.00;100589.19;4959671;28;20026;-76
2022/10/14 00:18:58;;;;;;;62.70;32.42;;;;;;;8.30;100.00;100584.78;4943724;28;20030;-77
2022/10/14 00:21:23;;;;;;;63.47;32.63;;;;;;;8.27;100.00;100588.56;4959687;28;20035;-76
2022/10/14 00:23:49;;;;;;;62.38;31.02;;;;;;;8.27;100.00;100588.56;4959509;28;20034;-76
2022/10/14 00:26:26;;;;;;;61.50;32.13;;;;;;;8.14;100.00;100570.78;4959259;28;20026;-78
2022/10/14 00:28:51;;;;;;;59.95;31.48;;;;;;;8.21;100.00;100590.44;4959455;28;20130;-78
2022/10/14 00:31:20;;;;;;;62.92;33.00;;;;;;;8.21;100.00;100587.59;4959468;28;20441;-77
2022/10/14 00:33:45;;;;;;;64.90;31.50;;;;;;;8.24;100.00;100589.50;4976861;28;20096;-78
2022/10/14 00:36:13;;;;;;;59.38;30.73;;;;;;;8.10;100.00;100567.31;4959411;28;20480;-78
2022/10/14 00:38:38;;;;;;;67.43;33.83;;;;;;;8.25;100.00;100593.94;4990880;28;20026;-76
2022/10/14 00:41:04;;;;;;;71.50;34.53;;;;;;;8.26;100.00;100589.81;4976432;28;20372;-76
2022/10/14 00:43:51;;;;;;;62.33;31.80;;;;;;;8.12;100.00;100575.34;4959349;28;20473;-76
2022/10/14 00:46:18;;;;;;;66.18;33.47;;;;;;;8.17;100.00;100567.03;4959470;28;20078;-76
2022/10/14 00:48:44;;;;;;;64.38;32.40;;;;;;;8.28;100.00;100586.50;4943722;28;20027;-77
2022/10/14 00:51:09;;;;;;;68.85;33.10;;;;;;;8.25;100.00;100574.03;4976748;28;20023;-77
2022/10/14 00:53:35;;;;;;;64.88;33.13;;;;;;;8.22;100.00;100574.16;4959194;28;20042;-77
2022/10/14 00:56:01;;;;;;;66.65;32.50;;;;;;;8.29;100.00;100579.56;4959083;28;20034;-77
2022/10/14 00:58:29;;;;;;;62.08;32.60;;;;;;;8.20;100.00;100563.25;4975024;28;20058;-78
2022/10/14 01:01:03;;;;;;;69.15;32.40;;;;;;;8.24;100.00;100568.78;4976332;28;20034;-77
2022/10/14 01:03:32;;;;;;;69.18;34.47;;;;;;;8.25;100.00;100576.88;4943868;28;20062;-77
2022/10/14 01:06:09;;;;;;;68.45;33.08;;;;;;;8.13;100.00;100554.97;4958532;28;20031;-76
2022/10/14 01:09:02;;;;;;;74.10;33.42;;;;;;;8.26;100.00;100569.88;4976189;28;20038;-77
2022/10/14 01:11:39;;;;;;;66.82;32.72;;;;;;;8.23;100.00;100568.00;4974859;28;20081;-78
2022/10/14 01:14:13;;;;;;;60.63;33.00;;;;;;;8.19;100.00;100569.41;4958607;28;20125;-78
2022/10/14 01:17:02;;;;;;;64.45;33.10;;;;;;;8.14;100.00;100565.09;4975806;28;20150;-80
2022/10/14 01:19:51;;;;;;;66.43;36.20;;;;;;;8.10;100.00;100561.59;4951909;28;20034;-78
2022/10/14 01:22:23;;;;;;;64.40;32.60;;;;;;;8.05;100.00;100567.91;4956136;28;20054;-77
2022/10/14 01:25:20;;;;;;;65.05;34.38;;;;;;;7.98;100.00;100563.31;4956283;28;20034;-79
2022/10/14 01:28:01;;;;;;;67.80;34.38;;;;;;;7.95;100.00;100563.44;4972452;28;20046;-78
2022/10/14 01:30:36;;;;;;;69.93;33.97;;;;;;;7.91;100.00;100569.28;4972269;28;20491;-77
2022/10/14 01:33:15;;;;;;;70.40;34.65;;;;;;;7.88;100.00;100564.53;4988145;28;20117;-76
2022/10/14 01:35:59;;;;;;;64.88;33.75;;;;;;;7.88;100.00;100558.84;4956145;28;20022;-78
2022/10/14 01:38:33;;;;;;;62.92;33.80;;;;;;;7.86;100.00;100557.72;4973319;28;20038;-78
2022/10/14 01:41:08;;;;;;;71.60;33.50;;;;;;;7.85;100.00;100559.00;4956013;28;20035;-80
2022/10/14 01:43:33;;;;;;;61.47;35.22;;;;;;;7.83;100.00;100544.44;4973185;28;20081;-78
2022/10/14 01:46:01;;;;;;;70.85;34.17;;;;;;;7.75;100.00;100528.91;4955871;28;20035;-78
2022/10/14 01:48:31;;;;;;;70.88;35.63;;;;;;;7.83;100.00;100547.28;4956325;28;20026;-78
2022/10/14 01:50:59;;;;;;;67.68;34.47;;;;;;;7.84;100.00;100543.16;4957779;28;20050;-78
2022/10/14 01:53:30;;;;;;;66.05;34.60;;;;;;;7.81;100.00;100536.38;4942237;28;20137;-78
2022/10/14 01:55:56;;;;;;;61.92;33.83;;;;;;;7.76;100.00;100539.84;4958286;28;20031;-77
2022/10/14 01:58:25;;;;;;;65.88;35.90;;;;;;;7.75;100.00;100546.78;4959099;28;20077;-77
2022/10/14 02:00:51;;;;;;;72.18;36.22;;;;;;;7.74;100.00;100545.19;4942592;28;20468;-77
2022/10/14 02:03:16;;;;;;;68.38;35.55;;;;;;;7.71;100.00;100551.03;4974679;28;20033;-78
2022/10/14 02:06:03;;;;;;;71.38;34.17;;;;;;;7.74;100.00;100550.09;4958651;28;20034;-77
2022/10/14 02:08:47;;;;;;;66.75;34.70;;;;;;;7.73;100.00;100549.28;4959115;28;20080;-77
2022/10/14 02:11:14;;;;;;;73.57;36.55;;;;;;;7.74;100.00;100548.03;4959037;28;20027;-77
2022/10/14 02:14:16;;;;;;;69.78;37.10;;;;;;;7.76;100.00;100553.25;4976267;28;20058;-77
2022/10/14 02:17:26;;;;;;;73.90;35.58;;;;;;;7.78;100.00;100547.88;4974587;28;20054;-78
2022/10/14 02:19:59;;;;;;;64.47;35.38;;;;;;;7.81;100.00;100542.06;4972706;28;20042;-76
2022/10/14 02:22:34;;;;;;;78.70;37.47;;;;;;;7.88;100.00;100546.66;4958630;28;20054;-76
2022/10/14 02:25:06;;;;;;;71.05;35.08;;;;;;;7.90;100.00;100547.00;4975934;28;20099;-77
2022/10/14 02:27:31;;;;;;;;;;;;;;;7.89;100.00;100553.94;4975486;28;20038;-77
2022/10/14 02:29:57;;;;;;;65.50;34.72;;;;;;;7.80;100.00;100542.53;4958266;28;20290;-77
2022/10/14 02:32:23;;;;;;;66.55;34.13;;;;;;;7.84;100.00;100532.59;4975340;28;20030;-77
2022/10/14 02:34:51;;;;;;;67.20;32.90;;;;;;;7.91;100.00;100540.84;4975441;28;20031;-77
2022/10/14 02:37:17;;;;;;;66.85;35.70;;;;;;;7.90;100.00;100539.25;4990758;28;20066;-77
2022/10/14 02:39:48;;;;;;;66.93;33.42;;;;;;;7.89;100.00;100534.81;4990366;28;20058;-76
2022/10/14 02:42:14;;;;;;;72.22;34.88;;;;;;;7.81;100.00;100525.00;4974304;28;20462;-77
2022/10/14 02:44:57;;;;;;;61.25;32.80;;;;;;;7.82;100.00;100523.72;4941404;28;20071;-77
2022/10/14 02:47:23;;;;;;;61.30;32.30;;;;;;;7.81;100.00;100535.59;4957374;28;20030;-77
2022/10/14 02:49:49;;;;;;;67.25;34.85;;;;;;;7.82;100.00;100545.69;4974624;28;20031;-77
2022/10/14 02:52:15;;;;;;;64.35;33.78;;;;;;;7.64;100.00;100511.47;4974363;28;20474;-76
2022/10/14 02:54:40;;;;;;;68.00;34.88;;;;;;;7.80;100.00;100543.31;4974745;28;20031;-76
2022/10/14 02:57:06;;;;;;;67.78;34.67;;;;;;;7.76;100.00;100542.69;4941160;28;20026;-77
2022/10/14 02:59:31;;;;;;;66.75;32.22;;;;;;;7.77;100.00;100535.72;4957419;28;20089;-76
2022/10/14 03:01:59;;;;;;;67.63;32.55;;;;;;;7.82;100.00;100545.69;4975833;28;20070;-75
2022/10/14 03:04:24;;;;;;;67.35;33.45;;;;;;;7.81;100.00;100539.22;4978395;28;20038;-75
2022/10/14 03:06:50;;;;;;;59.42;32.65;;;;;;;7.83;100.00;100544.44;4978260;28;20037;-76
2022/10/14 03:09:15;;;;;;;67.95;33.80;;;;;;;7.82;100.00;100535.09;4945204;28;20026;-77
2022/10/14 03:11:40;;;;;;;62.38;33.42;;;;;;;7.95;100.00;100546.38;4993352;28;20031;-76
2022/10/14 03:14:06;;;;;;;65.05;33.03;;;;;;;8.01;100.00;100543.72;4978399;28;20419;-77
2022/10/14 03:16:31;;;;;;;58.05;32.05;;;;;;;7.96;100.00;100528.06;4978174;28;20106;-77
2022/10/14 03:18:57;;;;;;;64.20;31.98;;;;;;;8.05;100.00;100536.63;4977992;28;20031;-77
2022/10/14 03:21:22;;;;;;;64.68;31.45;;;;;;;8.06;100.00;100532.50;4961019;28;20030;-77
2022/10/14 03:23:50;;;;;;;61.63;32.72;;;;;;;8.12;100.00;100535.50;4992920;28;20031;-77
2022/10/14 03:26:25;;;;;;;64.47;33.28;;;;;;;7.93;100.00;100509.84;4960309;28;20460;-76
2022/10/14 03:28:50;;;;;;;67.65;32.70;;;;;;;7.95;100.00;100518.72;4977728;28;20062;-77
2022/10/14 03:31:15;;;;;;;63.80;33.63;;;;;;;7.78;100.00;100491.00;4977933;28;20034;-78
2022/10/14 03:33:41;;;;;;;66.13;33.30;;;;;;;7.91;100.00;100526.63;4944695;28;20065;-78
2022/10/14 03:36:09;;;;;;;71.20;34.42;;;;;;;7.79;100.00;100515.34;4977587;28;20066;-76
2022/10/14 03:38:39;;;;;;;61.47;33.15;;;;;;;7.72;100.00;100521.34;4944615;28;20383;-77
2022/10/14 03:41:12;;;;;;;64.35;33.83;;;;;;;7.53;100.00;100501.31;4960560;28;20564;-76
2022/10/14 03:43:40;;;;;;;63.75;32.85;;;;;;;7.58;100.00;100519.03;4977323;28;20077;-76
2022/10/14 03:46:13;;;;;;;69.57;35.50;;;;;;;7.56;100.00;100518.72;4960906;28;20105;-77
2022/10/14 03:48:41;;;;;;;63.00;33.97;;;;;;;7.35;100.00;100489.88;4977480;28;20067;-75
2022/10/14 03:51:09;;;;;;;59.33;31.92;;;;;;;7.57;100.00;100531.69;4976232;28;20058;-76
2022/10/14 03:53:39;;;;;;;64.93;33.38;;;;;;;7.45;100.00;100504.94;4960132;28;20038;-76
2022/10/14 03:56:12;;;;;;;67.45;34.15;;;;;;;7.59;100.00;100529.16;4976592;28;20514;-77
2022/10/14 03:58:41;;;;;;;63.92;30.80;;;;;;;7.25;100.00;100484.63;4960024;28;20038;-76
2022/10/14 04:01:13;;;;;;;59.92;33.10;;;;;;;7.65;100.00;100532.97;4992126;28;20365;-79
2022/10/14 04:03:40;;;;;;;64.22;34.35;;;;;;;7.48;100.00;100513.31;4960005;28;20526;-77
2022/10/14 04:06:06;;;;;;;70.30;34.67;;;;;;;7.50;100.00;100510.00;4977405;28;20110;-78
2022/10/14 04:08:31;;;;;;;63.22;33.83;;;;;;;7.58;100.00;100538.94;4959912;28;20448;-76
2022/10/14 04:11:01;;;;;;;62.65;33.13;;;;;;;7.16;100.00;100462.63;4977193;28;20058;-77
2022/10/14 04:13:29;;;;;;;72.75;33.78;;;;;;;7.26;100.00;100483.34;4990788;28;20034;-78
2022/10/14 04:16:06;;;;;;;70.55;35.03;;;;;;;7.48;100.00;100510.47;4959529;28;20510;-78
2022/10/14 04:18:34;;;;;;;68.28;34.83;;;;;;;7.57;100.00;100515.41;4959966;28;20153;-76
2022/10/14 04:21:10;;;;;;;71.45;34.63;;;;;;;7.54;100.00;100517.13;4977239;28;20062;-76
2022/10/14 04:23:41;;;;;;;70.00;33.22;;;;;;;7.52;100.00;100521.72;4959702;28;20018;-77
2022/10/14 04:26:10;;;;;;;65.67;34.40;;;;;;;7.50;100.00;100518.53;4991595;28;20135;-76
2022/10/14 04:28:36;;;;;;;63.75;33.20;;;;;;;7.46;100.00;100512.22;4956405;29;20051;-77
2022/10/14 04:31:10;;;;;;;67.82;34.47;;;;;;;7.50;100.00;100513.66;4957799;29;20027;-75
2022/10/14 04:33:36;;;;;;;80.68;37.28;;;;;;;7.40;100.00;100499.84;4957930;28;20106;-76
2022/10/14 04:36:05;;;;;;;67.63;35.20;;;;;;;7.43;100.00;100504.59;4972272;28;20526;-76
2022/10/14 04:38:32;;;;;;;68.13;34.40;;;;;;;7.53;100.00;100520.44;4956145;29;20035;-76
2022/10/14 04:41:01;;;;;;;64.85;31.30;;;;;;;7.52;100.00;100519.63;4956000;29;20152;-75
2022/10/14 04:43:26;;;;;;;65.03;34.63;;;;;;;7.48;100.00;100521.84;4957507;28;20066;-79
2022/10/14 04:45:53;;;;;;;65.05;34.70;;;;;;;7.48;100.00;100507.63;4988240;28;20035;-77
2022/10/14 04:48:21;;;;;;;65.15;34.40;;;;;;;7.52;100.00;100519.63;4956099;29;20019;-77
2022/10/14 04:50:52;;;;;;;75.38;35.80;;;;;;;7.54;100.00;100516.34;4955818;29;20023;-75
2022/10/14 04:53:17;;;;;;;64.57;33.53;;;;;;;7.60;100.00;100520.16;4987949;28;20067;-75
2022/10/14 04:55:44;;;;;;;66.53;32.03;;;;;;;7.67;100.00;100516.25;4939684;29;20114;-75
2022/10/14 04:58:15;;;;;;;61.03;33.20;;;;;;;7.70;100.00;100523.84;4956058;29;20042;-77
2022/10/14 05:00:41;;;;;;;63.30;34.67;;;;;;;7.70;100.00;100509.63;4955765;29;20038;-78
2022/10/14 05:03:08;;;;;;;62.45;33.25;;;;;;;7.67;100.00;100513.41;4955839;29;20074;-77
2022/10/14 05:05:33;;;;;;;62.75;33.72;;;;;;;7.62;100.00;100497.72;4956761;29;20374;-77
2022/10/14 05:07:59;;;;;;;66.72;34.65;;;;;;;7.69;100.00;100514.50;4956694;29;20516;-78
2022/10/14 05:10:24;;;;;;;62.90;33.63;;;;;;;7.70;100.00;100510.41;4939824;29;20074;-78
2022/10/14 05:12:50;;;;;;;63.45;34.63;;;;;;;7.72;100.00;100510.72;4988127;28;20114;-76
2022/10/14 05:15:16;;;;;;;66.10;34.97;;;;;;;7.66;100.00;100489.06;4956389;28;20034;-76
2022/10/14 05:17:43;;;;;;;65.05;33.53;;;;;;;7.82;100.00;100509.50;4956995;29;20038;-78
2022/10/14 05:20:10;;;;;;;69.78;34.58;;;;;;;7.84;100.00;100498.44;4955458;29;20536;-79
2022/10/14 05:22:36;;;;;;;65.90;34.58;;;;;;;7.89;100.00;100503.53;4939479;29;20039;-79
2022/10/14 05:25:02;;;;;;;68.72;34.15;;;;;;;7.88;100.00;100496.25;4970966;28;20023;-77
2022/10/14 05:27:29;;;;;;;62.60;33.08;;;;;;;7.94;100.00;100502.13;4939062;29;20059;-75
2022/10/14 05:29:54;;;;;;;61.45;32.28;;;;;;;7.96;100.00;100496.75;4955193;29;20034;-76
2022/10/14 05:32:21;;;;;;;61.08;34.25;;;;;;;7.94;100.00;100494.38;4956376;28;20031;-77
2022/10/14 05:34:46;;;;;;;67.38;33.05;;;;;;;7.96;100.00;100496.75;4955789;29;20035;-77
2022/10/14 05:37:13;;;;;;;63.42;34.85;;;;;;;7.97;100.00;100501.16;4954729;29;20031;-76
2022/10/14 05:39:46;;;;;;;69.30;34.67;;;;;;;7.91;100.00;100481.09;4955637;29;20031;-79
2022/10/14 05:42:12;;;;;;;65.82;33.80;;;;;;;7.96;100.00;100491.06;4954172;29;20108;-82
2022/10/14 05:44:40;;;;;;;63.38;32.22;;;;;;;8.03;100.00;100482.22;4956223;29;20034;-78
2022/10/14 05:47:09;;;;;;;59.38;30.85;;;;;;;8.11;100.00;100486.34;4956261;29;20027;-77
2022/10/14 05:49:38;;;;;;;58.55;32.20;;;;;;;8.16;100.00;100499.97;4955435;28;20020;-78
2022/10/14 05:52:04;;;;;;;62.05;33.13;;;;;;;7.99;100.00;100453.13;4953320;29;20027;-77
2022/10/14 05:54:31;;;;;;;63.97;31.38;;;;;;;8.26;100.00;100489.41;4953401;29;20078;-78
2022/10/14 05:57:00;;;;;;;61.83;33.25;;;;;;;8.33;100.00;100497.63;4954479;29;20051;-78
2022/10/14 05:59:32;;;;;;;62.75;31.33;;;;;;;8.41;100.00;100487.50;4953268;29;20499;-78
2022/10/14 06:02:00;;;;;;;61.45;32.22;;;;;;;8.36;100.00;100473.94;4954520;29;20038;-78
2022/10/14 06:04:29;;;;;;;61.72;32.55;;;;;;;8.52;100.00;100469.94;4954422;29;20031;-79
2022/10/14 06:07:00;;;;;;;59.63;31.65;;;;;;;8.72;100.00;100493.06;4951342;29;20035;-78
2022/10/14 06:09:25;;;;;;;60.35;33.22;;;;;;;8.81;100.00;100479.59;4924017;29;20063;-78
2022/10/14 06:11:51;;;;;;;57.38;31.00;;;;;;;8.98;100.00;100487.81;4943009;28;20513;-78
2022/10/14 06:14:17;;;;;;;56.83;31.17;;;;;;;9.10;100.00;100487.59;4943596;29;20078;-80
2022/10/14 06:16:42;;;;;;;60.17;30.75;;;;;;;9.14;100.00;100488.25;4935503;29;20038;-79
2022/10/14 06:19:08;;;;;;;60.55;29.17;;;;;;;9.21;100.00;100489.97;4936747;29;20019;-79
2022/10/14 06:21:34;;;;;;;59.90;30.92;;;;;;;9.31;100.00;100494.38;4936645;29;20535;-78
2022/10/14 06:24:00;;;;;;;58.03;30.30;;;;;;;9.41;100.00;100489.44;4943449;29;20077;-79
2022/10/14 06:26:30;;;;;;;62.85;36.38;;;;;;;9.45;100.00;100484.34;4939107;28;20047;-81
2022/10/14 06:28:56;;;;;;;52.35;30.00;;;;;;;9.58;100.00;100502.06;4954664;28;20077;-82
2022/10/14 06:31:24;;;;;;;57.05;30.77;;;;;;;9.61;100.00;100487.63;4936260;29;20030;-79
2022/10/14 06:33:52;;;;;;;59.13;31.02;;;;;;;9.72;100.00;100495.66;4937378;29;20039;-79
2022/10/14 06:36:22;;;;;;;53.67;31.38;;;;;;;9.74;100.00;100492.38;4937097;29;20035;-79
2022/10/14 06:38:48;;;;;;;54.05;30.05;;;;;;;9.79;100.00;100503.88;4953919;29;20038;-82
2022/10/14 06:41:14;;;;;;;52.35;30.13;;;;;;;9.76;100.00;100487.75;4938684;29;20023;-82
2022/10/14 06:43:39;;;;;;;55.55;30.77;;;;;;;9.87;100.00;100496.56;4957419;29;20098;-83
2022/10/14 06:46:12;;;;;;;54.67;29.65;;;;;;;9.90;100.00;100486.22;4940325;29;20473;-86
2022/10/14 06:48:41;;;;;;;49.63;28.00;;;;;;;9.82;100.00;100470.75;4927104;29;20031;-87
2022/10/14 06:51:10;;;;;;;49.00;28.58;;;;;;;10.03;100.00;100495.38;4923331;29;20027;-83
2022/10/14 06:53:43;;;;;;;53.95;30.00;;;;;;;10.08;100.00;100495.50;4939283;29;20480;-84
2022/10/14 06:56:10;;;;;;;55.63;30.05;;;;;;;10.14;100.00;100489.13;4971403;28;20023;-85
2022/10/14 06:58:38;;;;;;;52.40;29.23;;;;;;;10.17;100.00;100500.38;4939860;29;20383;-84
2022/10/14 07:01:13;;;;;;;55.22;28.85;;;;;;;10.11;100.00;100470.88;4964379;28;20024;-85
2022/10/14 07:03:40;;;;;;;59.92;28.40;;;;;;;10.40;100.00;100490.19;4970886;28;20049;-79
2022/10/14 07:06:07;;;;;;;51.03;28.63;;;;;;;10.58;100.00;100480.72;4919617;29;20043;-78
2022/10/14 07:08:44;;;;;;;51.45;27.52;;;;;;;10.81;100.00;100479.88;4924007;29;20042;-79
2022/10/14 07:11:11;;;;;;;48.13;26.10;;;;;;;11.15;100.00;100498.47;4955491;29;20082;-78
2022/10/14 07:13:41;;;;;;;46.90;26.60;;;;;;;11.25;100.00;100451.31;4938270;29;20041;-76
2022/10/14 07:16:12;;;;;;;48.53;27.33;;;;;;;11.44;100.00;100420.41;4955388;29;20035;-76
2022/10/14 07:18:51;;;;;;;48.95;27.70;;;;;;;12.19;100.00;100490.00;4954183;29;20341;-77
2022/10/14 07:21:20;;;;;;;54.38;27.63;;;;;;;12.20;100.00;100468.69;4955255;29;20023;-77
2022/10/14 07:23:51;;;;;;;43.78;25.67;;;;;;;12.53;100.00;100484.75;4955567;29;20031;-78
2022/10/14 07:26:19;;;;;;;54.53;27.35;;;;;;;12.52;100.00;100454.50;4955695;28;20031;-77
2022/10/14 07:28:54;;;;;;;51.17;26.75;;;;;;;12.45;100.00;100432.03;4970175;28;20135;-77
2022/10/14 07:31:22;;;;;;;52.20;26.92;;;;;;;12.92;100.00;100505.28;4970057;28;20023;-79
2022/10/14 07:33:47;;;;;;;50.20;26.98;;;;;;;12.96;100.00;100489.41;4955108;29;20042;-77
2022/10/14 07:36:22;;;;;;;43.35;26.13;;;;;;;13.40;100.00;100509.16;4938047;29;20035;-80
2022/10/14 07:38:48;;;;;;;46.88;26.30;;;;;;;13.64;100.00;100516.72;4923116;29;20027;-78
2022/10/14 07:41:21;;;;;;;51.40;27.58;;;;;;;13.87;100.00;100484.00;4955383;29;20082;-76
2022/10/14 07:44:00;;;;;;;43.92;26.75;;;;;;;14.33;100.00;100489.53;4923232;29;20031;-78
2022/10/14 07:46:34;;;;;;;50.90;26.52;;;;;;;14.91;100.00;100505.22;4968971;28;20027;-78
2022/10/14 07:49:21;;;;;;;45.45;25.33;;;;;;;15.60;100.00;100505.63;4944258;29;20030;-78
2022/10/14 07:51:50;;;;;;;42.65;25.08;;;;;;;16.25;100.00;100505.28;4948622;28;20049;-79
2022/10/14 07:54:24;;;;;;;45.40;25.00;;;;;;;16.92;100.00;100502.97;4930494;29;20062;-78
2022/10/14 07:56:50;;;;;;;42.85;23.95;;;;;;;17.49;100.00;100498.44;4958114;28;20070;-79
2022/10/14 07:59:24;;;;;;;41.70;22.30;;;;;;;17.99;100.00;100500.88;4944780;28;20113;-78
2022/10/14 08:01:50;;;;;;;37.75;24.63;;;;;;;18.44;99.55;100498.34;4957889;28;20027;-79
2022/10/14 08:04:18;;;;;;;38.35;23.23;;;;;;;18.84;95.48;100503.13;4957816;29;20027;-78
2022/10/14 08:06:47;;;;;;;43.40;24.80;;;;;;;19.23;93.92;100504.72;4955340;28;20043;-79
2022/10/14 08:09:18;;;;;;;35.95;23.60;;;;;;;19.49;89.73;100510.66;4957711;29;20166;-79
2022/10/14 08:11:44;;;;;;;42.17;22.88;;;;;;;19.52;86.90;100513.22;4924714;29;20122;-82
2022/10/14 08:14:10;;;;;;;39.17;24.02;;;;;;;19.36;84.89;100511.34;4961469;29;20058;-80
2022/10/14 08:16:37;;;;;;;33.42;23.02;;;;;;;19.08;84.69;100508.06;4959520;28;20395;-80
2022/10/14 08:19:06;;;;;;;37.97;24.58;;;;;;;18.81;85.37;100512.13;4957892;29;20027;-79
2022/10/14 08:21:31;;;;;;;36.33;23.20;;;;;;;18.59;87.06;100505.28;4923901;29;20040;-83
2022/10/14 08:24:02;;;;;;;34.83;21.63;;;;;;;18.33;88.21;100512.94;4957874;29;20372;-81
2022/10/14 08:26:39;;;;;;;31.45;21.95;;;;;;;18.07;89.84;100513.44;4957249;28;20038;-81
2022/10/14 08:29:09;;;;;;;36.17;21.92;;;;;;;17.86;91.53;100506.53;4972553;28;20193;-81
2022/10/14 08:31:38;;;;;;;31.92;22.00;;;;;;;17.66;92.61;100502.75;4924956;29;20071;-83
2022/10/14 08:34:05;;;;;;;35.78;21.75;;;;;;;17.58;94.79;100507.56;4938795;29;20060;-83
2022/10/14 08:36:30;;;;;;;30.63;20.75;;;;;;;17.56;96.36;100506.53;4944356;29;20046;-82
2022/10/14 08:38:57;;;;;;;34.92;21.23;;;;;;;17.68;95.81;100505.91;4956878;29;20031;-81
2022/10/14 08:41:37;;;;;;;36.08;21.77;;;;;;;17.80;95.06;100504.47;4939687;29;20392;-79
2022/10/14 08:44:21;;;;;;;36.30;21.63;;;;;;;17.90;94.61;100512.81;4940279;29;20050;-84
2022/10/14 08:47:10;;;;;;;28.13;18.48;;;;;;;17.83;94.02;100488.94;4944764;29;20126;-85
2022/10/14 08:50:03;;;;;;;39.58;20.70;;;;;;;17.87;93.86;100479.19;4941451;29;20086;-82
2022/10/14 08:52:41;;;;;;;33.95;20.55;;;;;;;18.07;94.00;100513.44;4958789;29;20078;-85
2022/10/14 08:55:39;;;;;;;34.88;20.45;;;;;;;18.15;92.08;100505.72;4957977;29;20460;-80
2022/10/14 08:58:24;;;;;;;35.15;20.30;;;;;;;18.22;92.99;100511.72;4924289;29;20119;-80
2022/10/14 09:00:51;;;;;;;44.03;20.77;;;;;;;18.36;93.23;100497.41;4939385;29;20042;-80
2022/10/14 09:03:22;;;;;;;37.90;20.20;;;;;;;18.50;93.06;100491.19;4924907;29;20045;-83
2022/10/14 09:06:01;;;;;;;34.92;20.15;;;;;;;18.61;90.93;100496.84;4958012;29;20156;-82
2022/10/14 09:08:49;;;;;;;31.80;19.73;;;;;;;18.69;90.76;100494.09;4925199;29;20095;-77
2022/10/14 09:11:19;;;;;;;35.38;20.08;;;;;;;18.85;91.47;100489.44;4924214;29;20042;-77
2022/10/14 09:14:07;;;;;;;28.00;19.25;;;;;;;19.04;88.67;100476.50;4971942;28;20029;-77
2022/10/14 09:16:56;;;;;;;35.58;19.10;;;;;;;19.36;86.02;100496.88;4939658;29;20036;-78
2022/10/14 09:19:30;;;;;;;32.63;19.92;;;;;;;19.51;85.31;100488.47;4939991;29;20035;-78
2022/10/14 09:22:01;;;;;;;33.17;19.90;;;;;;;19.63;84.05;100488.28;4956659;29;20055;-80
2022/10/14 09:24:44;;;;;;;31.30;19.02;;;;;;;19.64;82.88;100478.25;4955597;29;20050;-78
2022/10/14 09:27:22;;;;;;;33.05;22.08;;;;;;;19.74;83.41;100479.41;4956162;29;20051;-79
2022/10/14 09:29:52;;;;;;;33.15;19.75;;;;;;;19.74;82.93;100473.59;4971334;28;20043;-85
2022/10/14 09:32:32;;;;;;;29.42;18.52;;;;;;;19.91;82.18;100476.97;4971372;28;20055;-76
2022/10/14 09:34:58;;;;;;;27.98;19.63;;;;;;;20.01;81.70;100481.06;4956509;29;20058;-81
2022/10/14 09:37:38;;;;;;;42.38;20.45;;;;;;;20.02;81.32;100458.63;4956272;29;20065;-80
2022/10/14 09:40:28;;;;;;;32.15;19.77;;;;;;;20.29;80.55;100495.06;4956297;29;20019;-79
2022/10/14 09:43:02;;;;;;;33.25;19.35;;;;;;;20.36;80.06;100486.44;4956877;29;20056;-83
2022/10/14 09:45:30;;;;;;;30.80;19.13;;;;;;;20.33;79.95;100486.78;5025645;23;20595;-78
2022/10/14 09:48:06;;;;;;;33.80;18.42;;;;;;;20.21;79.91;100492.03;4938589;29;20054;-80
2022/10/14 09:50:34;;;;;;;32.42;19.73;;;;;;;20.09;78.99;100487.78;4955813;28;20045;-78
2022/10/14 09:53:06;;;;;;;35.83;18.85;;;;;;;20.00;79.47;100482.41;4955874;28;20035;-77
2022/10/14 09:55:33;;;;;;;35.50;18.30;;;;;;;19.88;79.48;100481.00;4955103;29;20023;-77
2022/10/14 09:58:14;;;;;;;31.27;18.80;;;;;;;19.83;79.69;100476.88;4956064;28;20045;-79
2022/10/14 10:01:01;;;;;;;31.58;18.58;;;;;;;19.68;80.39;100456.31;4954666;29;20035;-78
2022/10/14 10:03:31;;;;;;;27.90;16.70;;;;;;;19.76;80.19;100477.50;4956066;28;20062;-78
2022/10/14 10:06:07;;;;;;;32.33;18.55;;;;;;;19.80;79.73;100472.19;4956005;28;20514;-79
2022/10/14 10:08:35;;;;;;;27.92;16.48;;;;;;;19.74;78.31;100464.91;4938958;29;20023;-79
2022/10/14 10:11:11;;;;;;;25.05;16.60;;;;;;;19.68;76.81;100475.81;4954064;29;20032;-79
2022/10/14 10:13:43;;;;;;;25.55;15.85;;;;;;;19.49;75.71;100464.28;4954724;29;20034;-79
2022/10/14 10:16:19;;;;;;;24.08;16.40;;;;;;;19.44;77.50;100473.84;4955563;29;20130;-79
2022/10/14 10:18:45;;;;;;;36.65;16.98;;;;;;;19.33;77.50;100462.41;4955113;29;20038;-79
2022/10/14 10:21:23;;;;;;;40.10;16.58;;;;;;;19.16;78.12;100451.09;4954008;28;20111;-79
2022/10/14 10:24:00;;;;;;;26.38;15.00;;;;;;;19.19;78.66;100455.78;4954247;29;20383;-77
2022/10/14 10:26:30;;;;;;;27.10;16.98;;;;;;;19.10;79.92;100435.88;4954790;29;20037;-78
2022/10/14 10:28:57;;;;;;;29.20;16.55;;;;;;;19.14;79.52;100447.97;4956192;29;20114;-77
2022/10/14 10:31:47;;;;;;;26.35;15.25;;;;;;;19.02;77.87;100443.63;4938280;29;20034;-78
2022/10/14 10:34:55;;;;;;;30.02;14.75;;;;;;;18.89;77.57;100449.34;4955211;28;20114;-78
2022/10/14 10:37:30;;;;;;;31.75;15.45;;;;;;;;;;4954066;29;20034;-77
2022/10/14 10:40:09;;;;;;;35.97;18.20;;;;;;;18.90;79.36;100442.22;4955355;28;20027;-79
2022/10/14 10:42:42;;;;;;;38.97;15.85;;;;;;;18.99;80.49;100438.94;4937853;29;20117;-76
2022/10/14 10:45:35;;;;;;;29.08;14.88;;;;;;;19.11;78.96;100443.25;4955803;29;20031;-78
2022/10/14 10:48:41;;;;;;;31.80;15.48;;;;;;;19.21;77.73;100438.66;4957776;28;20102;-79
2022/10/14 10:51:26;;;;;;;25.00;15.77;;;;;;;19.18;77.08;100439.72;4898379;29;20092;-79
2022/10/14 10:54:22;;;;;;;22.08;13.77;;;;;;;19.04;75.67;100430.16;4881862;29;20036;-81
2022/10/14 10:56:54;;;;;;;38.30;16.05;;;;;;;18.99;76.22;100442.63;4940634;29;20040;-77
2022/10/14 10:59:42;;;;;;;26.50;14.88;;;;;;;18.88;76.45;100439.09;4954093;29;20384;-77
2022/10/14 11:02:36;;;;;;;29.67;15.65;;;;;;;18.76;77.49;100431.91;4955992;28;20118;-82
2022/10/14 11:05:02;;;;;;;26.83;14.35;;;;;;;18.65;78.23;100430.72;4958734;29;20023;-82
2022/10/14 11:13:38;;;;;;;57.10;18.05;;;;;;;18.40;81.73;100423.41;4957276;29;20105;-89
2022/10/14 11:16:41;;;;;;;39.05;15.82;;;;;;;18.39;80.56;100416.06;4954717;29;20031;-79
2022/10/14 11:19:14;;;;;;;34.92;15.90;;;;;;;18.28;81.79;100398.81;4955280;29;20047;-79
2022/10/14 11:21:58;;;;;;;28.25;16.23;;;;;;;18.43;82.19;100407.84;4956171;28;20388;-78
2022/10/14 11:24:36;;;;;;;25.65;15.85;;;;;;;18.47;81.25;100417.03;4941932;29;20035;-78
2022/10/14 11:27:10;;;;;;;28.45;15.10;;;;;;;18.46;81.12;100415.44;4958540;29;20518;-83
2022/10/14 11:29:50;;;;;;;23.45;14.02;;;;;;;18.42;80.75;100417.88;4942671;29;20436;-84
2022/10/14 11:32:38;;;;;;;23.70;14.35;;;;;;;18.39;80.90;100403.69;4958014;29;20031;-78
2022/10/14 11:35:25;;;;;;;28.88;16.77;;;;;;;18.34;82.36;100408.22;4958152;28;20035;-75
2022/10/14 11:38:03;;;;;;;21.70;14.30;;;;;;;18.34;81.41;100405.34;4956853;29;20027;-76